Time;durP1;ratioP1;P1;durP2;ratioP2;P2;SDS_P1;SDS_P2;PMS_P1;PMS_P2;Temp;Humidity;BMP_temperature;BMP_pressure;BME280_temperature;BME280_humidity;BME280_pressure;Samples;Min_cycle;Max_cycle;Signal;HPM_P1;HPM_P2
2021/04/19 00:01:33;;;;;;;4.30;2.63;;;9.50;99.90;;;;;;5065130;28;20020;-63
2021/04/19 00:03:59;;;;;;;5.13;2.47;;;9.50;99.90;;;;;;5065193;28;20060;-63
2021/04/19 00:06:24;;;;;;;4.43;2.22;;;9.40;99.90;;;;;;5058262;28;20122;-63
2021/04/19 00:08:50;;;;;;;3.45;2.00;;;9.50;99.90;;;;;;5046033;28;20460;-63
2021/04/19 00:11:16;;;;;;;3.70;2.17;;;9.50;99.90;;;;;;5045221;28;20415;-63
2021/04/19 00:13:43;;;;;;;2.92;1.90;;;9.60;99.90;;;;;;5044711;28;20581;-63
2021/04/19 00:16:08;;;;;;;3.13;2.10;;;9.60;99.90;;;;;;5048537;28;20025;-64
2021/04/19 00:18:34;;;;;;;3.40;1.90;;;9.60;99.90;;;;;;5063599;28;20032;-64
2021/04/19 00:21:00;;;;;;;2.75;2.05;;;9.70;99.90;;;;;;5065167;28;20109;-64
2021/04/19 00:23:25;;;;;;;2.97;2.10;;;9.60;99.90;;;;;;5064877;28;20075;-63
2021/04/19 00:25:52;;;;;;;3.45;2.20;;;9.60;99.90;;;;;;5064022;28;20036;-64
2021/04/19 00:28:18;;;;;;;3.17;1.92;;;9.70;99.90;;;;;;5065350;28;20543;-64
2021/04/19 00:30:44;;;;;;;3.55;2.10;;;9.60;99.90;;;;;;5064785;28;20107;-64
2021/04/19 00:33:11;;;;;;;3.53;2.50;;;9.60;99.90;;;;;;5063177;28;20037;-64
2021/04/19 00:35:36;;;;;;;4.93;2.40;;;9.50;99.90;;;;;;5064780;28;20021;-63
2021/04/19 00:38:02;;;;;;;4.40;2.70;;;9.60;99.90;;;;;;5065200;28;20028;-64
2021/04/19 00:40:30;;;;;;;2.45;1.90;;;9.60;99.90;;;;;;5064765;28;20020;-63
2021/04/19 00:42:56;;;;;;;3.28;2.28;;;9.60;99.90;;;;;;5063225;28;20024;-64
2021/04/19 00:45:22;;;;;;;2.92;2.30;;;9.60;99.90;;;;;;5065496;28;20104;-65
2021/04/19 00:47:49;;;;;;;4.28;2.60;;;9.60;99.90;;;;;;5064471;28;20135;-64
2021/04/19 00:50:19;;;;;;;5.90;2.58;;;9.50;99.90;;;;;;5064727;28;20028;-63
2021/04/19 00:52:46;;;;;;;3.47;2.58;;;9.50;99.90;;;;;;5064034;28;20048;-63
2021/04/19 00:55:14;;;;;;;3.63;2.28;;;9.40;99.90;;;;;;5063705;28;20036;-63
2021/04/19 00:57:40;;;;;;;4.70;2.22;;;9.30;99.90;;;;;;5068040;28;20060;-63
2021/04/19 01:00:11;;;;;;;4.50;2.40;;;9.30;99.90;;;;;;5068726;28;20074;-63
2021/04/19 01:02:40;;;;;;;3.88;2.50;;;9.30;99.90;;;;;;5050899;28;20419;-64
2021/04/19 01:05:15;;;;;;;3.55;2.15;;;9.30;99.90;;;;;;5048746;28;20112;-63
2021/04/19 01:07:41;;;;;;;4.50;2.83;;;9.20;99.90;;;;;;5048534;28;20036;-64
2021/04/19 01:10:07;;;;;;;5.70;2.70;;;9.20;99.90;;;;;;5048225;28;20033;-63
2021/04/19 01:12:33;;;;;;;4.72;2.55;;;9.20;99.90;;;;;;5052488;28;20069;-64
2021/04/19 01:14:59;;;;;;;5.07;2.80;;;9.10;99.90;;;;;;5068416;28;20025;-64
2021/04/19 01:17:26;;;;;;;4.00;2.58;;;9.10;99.90;;;;;;5067964;28;20562;-63
2021/04/19 01:19:51;;;;;;;6.72;3.28;;;9.00;99.90;;;;;;5069272;28;20070;-63
2021/04/19 01:22:17;;;;;;;3.97;2.58;;;8.90;99.90;;;;;;5065509;28;20067;-63
2021/04/19 01:24:43;;;;;;;4.88;2.85;;;8.90;99.90;;;;;;5048375;28;20033;-62
2021/04/19 01:27:09;;;;;;;3.90;2.38;;;9.00;99.90;;;;;;5093688;28;20035;-64
2021/04/19 01:29:35;;;;;;;4.15;2.58;;;9.10;99.90;;;;;;5068401;28;20039;-63
2021/04/19 01:32:01;;;;;;;4.65;3.33;;;9.00;99.90;;;;;;5067980;28;20075;-63
2021/04/19 01:34:27;;;;;;;4.57;2.85;;;9.00;99.90;;;;;;5064846;28;20587;-63
2021/04/19 01:36:52;;;;;;;4.88;2.40;;;8.90;99.90;;;;;;5067748;28;20047;-63
2021/04/19 01:39:18;;;;;;;5.00;2.53;;;9.00;99.90;;;;;;5068794;28;20024;-63
2021/04/19 01:41:47;;;;;;;4.55;2.72;;;8.90;99.90;;;;;;5067919;28;20106;-64
2021/04/19 01:44:14;;;;;;;5.05;2.80;;;8.90;99.90;;;;;;5066990;28;20039;-64
2021/04/19 01:46:41;;;;;;;3.67;2.38;;;9.00;99.90;;;;;;5067598;28;20540;-64
2021/04/19 01:49:18;;;;;;;5.78;3.22;;;9.10;99.90;;;;;;5063795;28;20121;-64
2021/04/19 01:51:44;;;;;;;4.47;2.95;;;9.10;99.90;;;;;;5067635;28;20116;-64
2021/04/19 01:54:10;;;;;;;5.60;2.83;;;9.20;99.90;;;;;;5066780;28;20075;-63
2021/04/19 01:56:36;;;;;;;4.03;2.97;;;9.10;99.90;;;;;;5067534;28;20348;-63
2021/04/19 01:59:03;;;;;;;4.90;3.00;;;9.30;99.90;;;;;;5067642;28;20051;-63
2021/04/19 02:01:29;;;;;;;6.45;3.20;;;9.50;99.90;;;;;;5067252;28;20028;-64
2021/04/19 02:04:15;;;;;;;5.30;3.08;;;9.60;99.90;;;;;;5066330;28;20040;-64
2021/04/19 02:07:04;;;;;;;5.72;3.63;;;9.70;99.90;;;;;;5067549;28;20062;-64
2021/04/19 02:09:36;;;;;;;5.68;3.40;;;9.60;99.90;;;;;;5066313;28;20048;-64
2021/04/19 02:12:09;;;;;;;5.65;3.35;;;9.40;99.90;;;;;;5066382;28;20566;-64
2021/04/19 02:15:05;;;;;;;7.28;3.78;;;9.30;99.90;;;;;;5046873;28;20029;-63
2021/04/19 02:17:55;;;;;;;6.43;3.67;;;9.20;99.90;;;;;;5046885;28;20071;-64
2021/04/19 02:20:39;;;;;;;5.00;3.00;;;9.20;99.90;;;;;;5047671;28;20025;-63
2021/04/19 02:23:23;;;;;;;5.18;3.15;;;9.10;99.90;;;;;;5053433;28;20178;-63
2021/04/19 02:25:56;;;;;;;5.15;3.45;;;9.00;99.90;;;;;;5067958;28;20074;-63
2021/04/19 02:28:33;;;;;;;5.18;2.95;;;9.00;99.90;;;;;;5067126;28;20032;-63
2021/04/19 02:31:11;;;;;;;3.53;2.45;;;8.80;99.90;;;;;;5067143;28;20509;-63
2021/04/19 02:33:41;;;;;;;4.28;3.22;;;8.80;99.90;;;;;;5057568;28;20067;-63
2021/04/19 02:36:09;;;;;;;5.32;3.50;;;8.70;99.90;;;;;;5047045;28;20530;-63
2021/04/19 02:38:38;;;;;;;4.70;3.10;;;8.70;99.90;;;;;;5058118;28;20559;-63
2021/04/19 02:41:08;;;;;;;5.25;3.10;;;8.60;99.90;;;;;;5067014;28;20029;-63
2021/04/19 02:43:36;;;;;;;3.75;2.80;;;8.60;99.90;;;;;;5065446;28;20037;-63
2021/04/19 02:46:04;;;;;;;5.20;3.05;;;8.60;99.90;;;;;;5066075;28;20033;-64
2021/04/19 02:48:30;;;;;;;4.53;3.10;;;8.60;99.90;;;;;;5064086;28;20402;-64
2021/04/19 02:50:58;;;;;;;4.78;3.10;;;8.50;99.90;;;;;;5066757;28;20036;-64
2021/04/19 02:53:25;;;;;;;7.22;3.60;;;8.40;99.90;;;;;;5060039;28;20028;-64
2021/04/19 02:55:51;;;;;;;5.32;3.45;;;8.40;99.90;;;;;;5047361;28;20036;-64
2021/04/19 02:58:28;;;;;;;6.35;3.88;;;8.40;99.90;;;;;;5046583;28;20013;-64
2021/04/19 03:00:54;;;;;;;5.30;3.17;;;8.40;99.90;;;;;;5046929;28;20054;-64
2021/04/19 03:03:29;;;;;;;5.68;2.97;;;8.30;99.90;;;;;;5064483;28;20028;-65
2021/04/19 03:05:57;;;;;;;5.55;3.70;;;8.20;99.90;;;;;;5066070;28;20032;-64
2021/04/19 03:08:27;;;;;;;6.13;3.03;;;8.20;99.90;;;;;;5066566;28;20123;-64
2021/04/19 03:11:07;;;;;;;4.22;3.00;;;8.40;99.90;;;;;;5066334;28;20028;-64
2021/04/19 03:13:36;;;;;;;6.28;3.58;;;8.30;99.90;;;;;;5064158;28;20060;-64
2021/04/19 03:16:04;;;;;;;5.35;2.58;;;8.20;99.90;;;;;;5045955;28;20423;-57
2021/04/19 03:18:34;;;;;;;4.45;3.00;;;8.10;99.90;;;;;;5045665;28;20021;-63
2021/04/19 03:21:15;;;;;;;5.25;3.00;;;8.20;99.90;;;;;;5044574;28;20108;-64
2021/04/19 03:23:45;;;;;;;5.90;2.85;;;8.20;99.90;;;;;;5047006;28;20036;-64
2021/04/19 03:26:14;;;;;;;4.00;2.60;;;8.20;99.90;;;;;;5066067;28;20032;-63
2021/04/19 03:28:44;;;;;;;3.83;2.90;;;8.00;99.90;;;;;;5065540;28;20039;-63
2021/04/19 03:31:16;;;;;;;5.53;3.40;;;8.10;99.90;;;;;;5066351;28;20032;-62
2021/04/19 03:33:44;;;;;;;6.30;3.53;;;8.10;99.90;;;;;;5065076;28;20036;-62
2021/04/19 03:36:13;;;;;;;7.45;3.40;;;8.20;99.90;;;;;;5065977;28;20099;-62
2021/04/19 03:38:40;;;;;;;7.72;3.50;;;8.30;99.90;;;;;;5064550;28;20067;-62
2021/04/19 03:41:08;;;;;;;5.85;3.83;;;8.20;99.90;;;;;;5066530;28;20096;-63
2021/04/19 03:43:36;;;;;;;5.53;3.45;;;8.20;99.90;;;;;;5065631;28;20439;-63
2021/04/19 03:46:05;;;;;;;5.70;3.33;;;8.10;99.90;;;;;;5046626;28;20024;-63
2021/04/19 03:48:34;;;;;;;4.25;2.97;;;8.10;99.90;;;;;;5046915;28;20095;-63
2021/04/19 03:51:08;;;;;;;8.23;3.17;;;7.90;99.90;;;;;;5047087;28;20103;-63
2021/04/19 03:53:34;;;;;;;5.40;3.30;;;8.00;99.90;;;;;;5059519;28;20046;-63
2021/04/19 03:56:02;;;;;;;5.13;3.50;;;7.90;99.90;;;;;;5055222;28;20029;-63
2021/04/19 03:58:31;;;;;;;4.88;3.20;;;7.90;99.90;;;;;;5066931;28;20028;-63
2021/04/19 04:01:01;;;;;;;5.50;3.50;;;7.90;99.90;;;;;;5063271;28;20024;-63
2021/04/19 04:03:27;;;;;;;4.70;2.65;;;7.80;99.90;;;;;;5046955;28;20068;-63
2021/04/19 04:05:55;;;;;;;4.78;3.45;;;7.70;99.90;;;;;;5063612;28;20036;-63
2021/04/19 04:08:21;;;;;;;6.97;3.47;;;7.90;99.90;;;;;;5062457;28;20379;-63
2021/04/19 04:10:47;;;;;;;5.97;4.13;;;7.90;99.90;;;;;;5064591;28;20514;-63
2021/04/19 04:13:13;;;;;;;5.15;3.67;;;8.00;99.90;;;;;;5064121;28;20063;-63
2021/04/19 04:16:08;;;;;;;8.75;4.57;;;8.00;99.90;;;;;;5066272;28;20117;-63
2021/04/19 04:18:34;;;;;;;5.75;4.22;;;7.90;99.90;;;;;;5061802;28;20085;-63
2021/04/19 04:21:01;;;;;;;7.57;5.00;;;7.80;99.90;;;;;;5066799;28;20674;-63
2021/04/19 04:23:27;;;;;;;9.80;5.45;;;7.80;99.90;;;;;;5059560;28;20044;-63
2021/04/19 04:25:53;;;;;;;11.75;5.57;;;7.70;99.90;;;;;;5065014;28;20419;-62
2021/04/19 04:28:19;;;;;;;9.55;5.15;;;7.70;99.90;;;;;;5065916;28;20024;-62
2021/04/19 04:30:46;;;;;;;8.48;4.82;;;7.60;99.90;;;;;;5063275;28;20410;-62
2021/04/19 04:33:11;;;;;;;8.45;4.82;;;7.60;99.90;;;;;;5058390;28;20177;-63
2021/04/19 04:35:37;;;;;;;9.82;5.20;;;7.60;99.90;;;;;;5044976;28;20500;-62
2021/04/19 04:38:04;;;;;;;13.15;6.03;;;7.60;99.90;;;;;;5064273;28;20029;-63
2021/04/19 04:40:30;;;;;;;13.18;6.40;;;7.60;99.90;;;;;;5064780;28;20106;-65
2021/04/19 04:43:04;;;;;;;29.33;11.93;;;7.60;99.90;;;;;;5060445;28;20025;-63
2021/04/19 04:45:32;;;;;;;28.80;12.43;;;7.60;99.90;;;;;;5044425;28;20025;-62
2021/04/19 04:47:57;;;;;;;38.95;15.68;;;7.60;99.90;;;;;;5044898;28;20033;-63
2021/04/19 04:50:31;;;;;;;45.72;18.50;;;7.60;99.90;;;;;;5044200;28;20025;-62
2021/04/19 04:53:15;;;;;;;44.05;17.85;;;7.50;99.90;;;;;;5044386;28;20503;-62
2021/04/19 04:55:44;;;;;;;32.38;12.45;;;7.60;99.90;;;;;;5044668;28;20091;-62
2021/04/19 04:58:12;;;;;;;42.10;16.83;;;7.50;99.90;;;;;;5044656;28;20454;-62
2021/04/19 05:00:38;;;;;;;35.05;13.50;;;7.50;99.90;;;;;;5044104;28;20551;-62
2021/04/19 05:03:05;;;;;;;23.90;11.20;;;7.60;99.90;;;;;;5047842;28;20139;-63
2021/04/19 05:05:30;;;;;;;26.70;11.55;;;7.50;99.90;;;;;;5064563;28;20028;-62
2021/04/19 05:07:58;;;;;;;22.20;9.60;;;7.50;99.90;;;;;;5043962;28;20044;-62
2021/04/19 05:10:24;;;;;;;26.55;13.82;;;7.50;99.90;;;;;;5043946;28;20170;-63
2021/04/19 05:12:51;;;;;;;24.90;11.80;;;7.50;99.90;;;;;;5043428;28;20021;-62
2021/04/19 05:15:17;;;;;;;34.78;15.90;;;7.50;99.90;;;;;;5064832;28;20319;-63
2021/04/19 05:17:44;;;;;;;27.30;12.75;;;7.60;99.90;;;;;;5062625;28;20423;-63
2021/04/19 05:20:11;;;;;;;16.80;10.07;;;7.60;99.90;;;;;;5064217;28;20028;-63
2021/04/19 05:22:38;;;;;;;12.93;7.30;;;7.50;99.90;;;;;;5064967;28;20055;-62
2021/04/19 05:25:05;;;;;;;13.30;8.15;;;7.50;99.90;;;;;;5064567;28;20054;-62
2021/04/19 05:27:31;;;;;;;9.73;6.65;;;7.50;99.90;;;;;;5063958;28;20074;-62
2021/04/19 05:29:58;;;;;;;10.60;6.28;;;7.50;99.90;;;;;;5045663;28;20052;-63
2021/04/19 05:32:25;;;;;;;8.18;5.60;;;7.50;99.90;;;;;;5044161;28;20503;-62
2021/04/19 05:34:51;;;;;;;11.05;6.97;;;7.60;99.90;;;;;;5053621;28;20102;-62
2021/04/19 05:37:18;;;;;;;10.27;7.25;;;7.50;99.90;;;;;;5064490;28;20491;-63
2021/04/19 05:39:45;;;;;;;9.18;5.80;;;7.40;99.90;;;;;;5063059;28;20062;-63
2021/04/19 05:42:14;;;;;;;9.35;5.75;;;7.50;99.90;;;;;;5064513;28;20028;-63
2021/04/19 05:44:41;;;;;;;9.52;5.78;;;7.50;99.90;;;;;;5068175;28;20025;-63
2021/04/19 05:47:08;;;;;;;9.32;5.15;;;7.60;99.90;;;;;;5068640;28;20104;-63
2021/04/19 05:49:33;;;;;;;6.28;4.40;;;7.50;99.90;;;;;;5059176;28;20063;-63
2021/04/19 05:52:02;;;;;;;8.30;4.93;;;7.60;99.90;;;;;;5047526;28;20017;-63
2021/04/19 05:54:29;;;;;;;8.10;4.40;;;7.60;99.90;;;;;;5047783;28;20032;-62
2021/04/19 05:57:19;;;;;;;7.35;4.43;;;7.50;99.90;;;;;;5048030;28;20032;-63
2021/04/19 05:59:50;;;;;;;7.10;4.65;;;7.60;99.90;;;;;;5051539;28;20034;-63
2021/04/19 06:02:44;;;;;;;6.82;4.47;;;7.60;99.90;;;;;;5065036;28;20566;-63
2021/04/19 06:05:19;;;;;;;10.48;4.57;;;7.70;99.90;;;;;;5064051;28;20044;-63
2021/04/19 06:07:51;;;;;;;7.32;4.45;;;7.80;99.90;;;;;;5067653;28;20019;-63
2021/04/19 06:10:26;;;;;;;6.45;4.35;;;7.80;99.90;;;;;;5065899;28;20055;-63
2021/04/19 06:12:54;;;;;;;16.25;7.95;;;7.80;99.90;;;;;;5067787;28;20111;-63
2021/04/19 06:15:22;;;;;;;16.00;7.95;;;7.70;99.90;;;;;;5067166;28;20027;-63
2021/04/19 06:17:50;;;;;;;14.77;6.18;;;7.80;99.90;;;;;;5066255;28;20812;-63
2021/04/19 06:20:18;;;;;;;7.97;4.70;;;7.90;99.90;;;;;;5067694;28;20217;-63
2021/04/19 06:22:52;;;;;;;7.35;4.57;;;7.80;99.90;;;;;;5067592;28;20017;-63
2021/04/19 06:25:20;;;;;;;7.28;4.57;;;7.90;99.90;;;;;;5067652;28;20032;-63
2021/04/19 06:27:47;;;;;;;7.63;4.50;;;7.90;99.90;;;;;;5066815;28;20036;-63
2021/04/19 06:30:19;;;;;;;7.90;4.65;;;7.80;99.90;;;;;;5066173;28;20405;-63
2021/04/19 06:32:47;;;;;;;11.40;6.22;;;7.80;99.90;;;;;;5067435;28;20028;-63
2021/04/19 06:35:15;;;;;;;16.13;7.53;;;8.00;99.90;;;;;;5062999;28;20082;-62
2021/04/19 06:37:41;;;;;;;21.63;10.43;;;7.90;99.90;;;;;;5052111;28;20029;-63
2021/04/19 06:40:08;;;;;;;18.85;9.70;;;8.00;99.90;;;;;;5048078;28;20032;-63
2021/04/19 06:42:34;;;;;;;20.52;9.70;;;7.90;99.90;;;;;;5063428;28;20625;-63
2021/04/19 06:45:01;;;;;;;16.40;8.02;;;7.80;99.90;;;;;;5062583;28;20033;-63
2021/04/19 06:47:30;;;;;;;14.27;7.22;;;7.80;99.90;;;;;;5046615;28;20047;-63
2021/04/19 06:49:58;;;;;;;13.38;5.88;;;7.80;99.90;;;;;;5047124;28;20458;-63
2021/04/19 06:52:24;;;;;;;7.38;5.22;;;7.80;99.90;;;;;;5046755;28;20430;-63
2021/04/19 06:54:49;;;;;;;9.07;5.15;;;7.90;99.90;;;;;;5045826;28;20484;-62
2021/04/19 06:57:17;;;;;;;8.65;5.40;;;8.00;99.90;;;;;;5046759;28;20052;-63
2021/04/19 06:59:45;;;;;;;9.00;5.07;;;8.00;99.90;;;;;;5046289;28;20336;-63
2021/04/19 07:02:25;;;;;;;10.57;5.32;;;8.00;99.90;;;;;;5046667;28;20027;-63
2021/04/19 07:04:53;;;;;;;9.40;5.45;;;8.10;99.90;;;;;;5053870;28;20202;-63
2021/04/19 07:07:23;;;;;;;10.35;5.40;;;8.30;99.90;;;;;;5065542;28;20383;-63
2021/04/19 07:09:53;;;;;;;8.65;4.60;;;8.30;99.90;;;;;;5066056;28;20312;-63
2021/04/19 07:12:21;;;;;;;8.65;4.28;;;8.30;99.90;;;;;;5065971;28;20023;-63
2021/04/19 07:14:52;;;;;;;8.35;4.43;;;8.40;99.90;;;;;;5058442;28;20053;-62
2021/04/19 07:17:19;;;;;;;6.20;3.72;;;8.50;99.90;;;;;;5059885;28;20462;-63
2021/04/19 07:19:45;;;;;;;6.05;4.15;;;8.50;99.90;;;;;;5062333;28;20036;-63
2021/04/19 07:22:12;;;;;;;5.47;3.92;;;8.50;99.90;;;;;;5054690;28;20025;-63
2021/04/19 07:24:38;;;;;;;5.50;4.10;;;8.60;99.90;;;;;;5067212;28;20021;-63
2021/04/19 07:27:05;;;;;;;6.38;3.63;;;8.50;99.90;;;;;;5066276;28;20232;-62
2021/04/19 07:29:31;;;;;;;5.03;3.50;;;8.60;99.90;;;;;;5065987;28;20215;-62
2021/04/19 07:31:58;;;;;;;6.35;4.07;;;8.70;99.90;;;;;;5067130;28;20078;-62
2021/04/19 07:34:29;;;;;;;6.93;4.32;;;8.60;99.90;;;;;;5066760;28;20039;-63
2021/04/19 07:36:59;;;;;;;5.20;3.85;;;8.60;99.90;;;;;;5066821;28;20025;-62
2021/04/19 07:39:29;;;;;;;4.43;3.35;;;8.70;99.90;;;;;;5066776;28;20414;-62
2021/04/19 07:41:56;;;;;;;6.28;4.03;;;8.70;99.90;;;;;;5066965;28;20553;-62
2021/04/19 07:44:52;;;;;;;8.43;4.50;;;8.80;99.90;;;;;;5067106;28;20037;-62
2021/04/19 07:47:31;;;;;;;6.97;4.43;;;8.80;99.90;;;;;;5065974;28;20024;-62
2021/04/19 07:50:10;;;;;;;8.65;4.07;;;8.70;99.90;;;;;;5066485;28;20035;-62
2021/04/19 07:53:01;;;;;;;7.60;4.60;;;8.70;99.90;;;;;;5066443;28;20030;-62
2021/04/19 07:55:31;;;;;;;5.32;3.85;;;8.70;99.90;;;;;;5066585;28;20693;-62
2021/04/19 07:57:58;;;;;;;7.43;4.00;;;8.90;99.90;;;;;;5066526;28;20020;-62
2021/04/19 08:00:29;;;;;;;6.97;4.05;;;9.00;99.90;;;;;;5066534;28;20395;-62
2021/04/19 08:03:10;;;;;;;6.25;3.83;;;9.00;99.90;;;;;;5066703;28;20055;-62
2021/04/19 08:05:49;;;;;;;6.88;3.25;;;8.80;99.90;;;;;;5064148;28;20506;-62
2021/04/19 08:08:27;;;;;;;4.25;2.70;;;9.00;99.90;;;;;;5066155;28;20032;-63
2021/04/19 08:11:15;;;;;;;3.83;2.65;;;9.20;99.90;;;;;;5066516;28;20123;-63
2021/04/19 08:13:42;;;;;;;4.50;2.83;;;9.30;99.90;;;;;;5065587;28;20064;-63
2021/04/19 08:16:28;;;;;;;3.40;2.35;;;9.20;99.90;;;;;;5066674;28;20028;-63
2021/04/19 08:19:01;;;;;;;3.05;2.45;;;9.40;99.90;;;;;;5066934;28;20395;-62
2021/04/19 08:21:31;;;;;;;3.17;2.40;;;9.30;99.90;;;;;;5066091;28;20082;-62
2021/04/19 08:24:19;;;;;;;3.60;2.40;;;9.40;99.90;;;;;;5063813;28;20077;-63
2021/04/19 08:26:52;;;;;;;4.22;2.72;;;9.40;99.90;;;;;;5056394;28;20579;-64
2021/04/19 08:29:36;;;;;;;3.53;2.33;;;9.50;99.90;;;;;;5065415;28;20028;-62
2021/04/19 08:32:04;;;;;;;7.53;3.80;;;9.50;99.90;;;;;;5045729;28;20029;-64
2021/04/19 08:34:30;;;;;;;4.30;3.20;;;9.40;99.90;;;;;;5045581;28;20305;-61
2021/04/19 08:36:58;;;;;;;4.35;3.20;;;9.30;99.90;;;;;;5045892;28;20021;-61
2021/04/19 08:39:24;;;;;;;4.03;2.60;;;9.60;99.90;;;;;;5045830;28;20075;-61
2021/04/19 08:41:50;;;;;;;3.00;2.28;;;9.60;99.90;;;;;;5047707;28;20025;-61
2021/04/19 08:44:18;;;;;;;1.83;1.42;;;9.70;99.90;;;;;;5065773;28;20111;-64
2021/04/19 08:46:44;;;;;;;2.83;2.00;;;9.90;99.90;;;;;;5065178;28;20025;-63
2021/04/19 08:49:11;;;;;;;2.80;2.08;;;9.90;99.90;;;;;;5065707;28;20024;-63
2021/04/19 08:51:38;;;;;;;2.60;1.90;;;9.90;99.90;;;;;;5065219;28;20086;-62
2021/04/19 08:54:04;;;;;;;3.47;1.88;;;10.00;99.90;;;;;;5066275;28;20024;-61
2021/04/19 08:56:30;;;;;;;2.05;1.63;;;10.10;99.90;;;;;;5064875;28;20036;-62
2021/04/19 08:58:55;;;;;;;1.70;1.45;;;10.30;99.90;;;;;;5065012;28;20021;-62
2021/04/19 09:01:21;;;;;;;2.50;2.05;;;10.40;99.90;;;;;;5065501;28;20052;-61
2021/04/19 09:04:06;;;;;;;4.15;2.30;;;10.20;99.90;;;;;;5064975;28;20043;-62
2021/04/19 09:06:43;;;;;;;2.47;1.75;;;10.20;99.90;;;;;;5064949;28;20024;-62
2021/04/19 09:09:13;;;;;;;2.20;1.80;;;10.30;99.90;;;;;;5061016;28;20031;-62
2021/04/19 09:11:39;;;;;;;2.45;2.17;;;10.40;99.90;;;;;;5045192;28;20410;-61
2021/04/19 09:14:13;;;;;;;3.75;2.33;;;10.40;99.90;;;;;;5045061;28;20115;-64
2021/04/19 09:16:41;;;;;;;;;;;10.40;99.90;;;;;;5063791;28;20394;-62
2021/04/19 09:19:08;;;;;;;2.65;2.10;;;10.60;99.90;;;;;;5069100;28;19918;-62
2021/04/19 09:21:49;;;;;;;4.15;2.20;;;10.60;99.90;;;;;;5068661;28;20024;-61
2021/04/19 09:24:17;;;;;;;3.63;2.40;;;10.60;99.90;;;;;;5069221;28;20050;-61
2021/04/19 09:26:53;;;;;;;2.75;1.90;;;10.70;99.90;;;;;;5064913;28;20028;-61
2021/04/19 09:29:25;;;;;;;2.47;1.90;;;10.90;99.90;;;;;;5068540;28;20036;-61
2021/04/19 09:32:07;;;;;;;1.95;1.55;;;11.20;99.90;;;;;;5068972;28;20533;-62
2021/04/19 09:34:36;;;;;;;3.47;2.15;;;11.10;99.90;;;;;;5061004;28;20024;-62
2021/04/19 09:37:02;;;;;;;3.75;2.42;;;11.00;99.90;;;;;;5059968;28;20082;-63
2021/04/19 09:39:43;;;;;;;3.10;2.25;;;10.90;99.90;;;;;;5062500;28;20461;-62
2021/04/19 09:42:10;;;;;;;2.40;2.00;;;11.10;99.90;;;;;;5067221;28;20043;-63
2021/04/19 09:44:51;;;;;;;2.17;1.77;;;11.10;99.90;;;;;;5067800;28;20056;-62
2021/04/19 09:47:48;;;;;;;3.25;2.33;;;11.20;99.90;;;;;;5056620;28;20434;-63
2021/04/19 09:50:15;;;;;;;5.85;3.47;;;11.00;99.90;;;;;;5048861;28;20042;-63
2021/04/19 09:52:42;;;;;;;2.97;2.42;;;11.00;99.90;;;;;;5048617;28;20479;-63
2021/04/19 09:55:08;;;;;;;3.53;2.35;;;11.10;99.90;;;;;;5054082;28;20024;-61
2021/04/19 09:57:37;;;;;;;4.32;2.97;;;11.20;99.90;;;;;;5066054;28;20032;-62
2021/04/19 10:00:06;;;;;;;3.95;2.60;;;11.20;99.90;;;;;;5067339;28;20514;-62
2021/04/19 10:02:34;;;;;;;2.90;2.17;;;11.40;99.90;;;;;;5067875;28;20115;-64
2021/04/19 10:05:00;;;;;;;3.08;2.20;;;11.50;99.90;;;;;;5067605;28;20024;-64
2021/04/19 10:07:26;;;;;;;2.55;1.90;;;11.50;99.80;;;;;;5066551;28;20078;-64
2021/04/19 10:09:54;;;;;;;2.10;1.70;;;11.50;99.30;;;;;;5067006;28;20028;-63
2021/04/19 10:12:21;;;;;;;4.47;2.95;;;11.80;99.90;;;;;;5067561;28;20111;-63
2021/04/19 10:14:47;;;;;;;6.43;4.47;;;11.80;99.30;;;;;;5068198;28;20016;-63
2021/04/19 10:17:17;;;;;;;5.60;3.83;;;11.50;99.70;;;;;;5068786;28;20185;-63
2021/04/19 10:19:44;;;;;;;3.22;2.78;;;11.50;99.30;;;;;;5067641;28;20162;-66
2021/04/19 10:22:11;;;;;;;3.22;2.20;;;11.70;98.90;;;;;;5068285;28;20030;-69
2021/04/19 10:24:50;;;;;;;2.97;1.83;;;12.10;98.40;;;;;;5067964;28;20022;-63
2021/04/19 10:27:27;;;;;;;1.92;1.48;;;12.30;98.60;;;;;;5067228;28;20544;-69
2021/04/19 10:29:54;;;;;;;2.20;1.63;;;12.50;97.70;;;;;;5067733;28;20067;-66
2021/04/19 10:32:31;;;;;;;1.73;1.20;;;12.50;97.70;;;;;;5067552;28;20042;-67
2021/04/19 10:34:57;;;;;;;2.55;1.85;;;12.50;97.00;;;;;;5047690;28;20495;-68
2021/04/19 10:37:23;;;;;;;3.53;1.67;;;12.50;96.50;;;;;;5048473;28;20058;-69
2021/04/19 10:39:49;;;;;;;2.20;2.00;;;12.40;96.60;;;;;;5046441;28;20062;-69
2021/04/19 10:42:23;;;;;;;1.77;1.55;;;12.40;96.90;;;;;;5047632;28;20044;-70
2021/04/19 10:44:49;;;;;;;3.85;2.38;;;12.50;96.80;;;;;;5047838;28;20025;-69
2021/04/19 10:47:27;;;;;;;3.83;2.20;;;12.50;96.70;;;;;;5047687;28;20055;-69
2021/04/19 10:49:53;;;;;;;3.78;2.42;;;12.60;96.10;;;;;;5048621;28;20100;-68
2021/04/19 10:52:19;;;;;;;2.72;1.85;;;12.60;96.30;;;;;;5046013;28;20163;-69
2021/04/19 10:54:45;;;;;;;1.75;1.50;;;12.90;96.80;;;;;;5047796;28;20643;-69
2021/04/19 10:57:29;;;;;;;3.88;2.15;;;13.10;96.00;;;;;;5047486;28;20025;-68
2021/04/19 10:59:59;;;;;;;3.13;2.42;;;12.70;95.30;;;;;;5048230;28;20028;-66
2021/04/19 11:02:29;;;;;;;2.50;1.90;;;12.80;95.70;;;;;;5046095;28;20029;-67
2021/04/19 11:04:56;;;;;;;3.60;2.60;;;12.80;95.30;;;;;;5047873;28;20025;-67
2021/04/19 11:07:32;;;;;;;4.60;2.80;;;12.80;95.70;;;;;;5047494;28;20041;-67
2021/04/19 11:10:26;;;;;;;2.92;2.40;;;12.90;95.20;;;;;;5054511;28;20028;-67
2021/04/19 11:13:06;;;;;;;3.27;1.93;;;13.00;95.40;;;;;;5067753;28;20486;-67
2021/04/19 11:15:40;;;;;;;2.88;1.80;;;13.20;95.60;;;;;;5065513;28;20024;-66
2021/04/19 11:18:15;;;;;;;3.33;1.95;;;13.50;94.80;;;;;;5065671;28;20495;-66
2021/04/19 11:20:42;;;;;;;2.38;1.52;;;13.50;94.50;;;;;;5054602;28;20112;-67
2021/04/19 11:23:27;;;;;;;2.60;1.80;;;13.70;94.60;;;;;;5045837;28;20372;-66
2021/04/19 11:25:55;;;;;;;6.50;4.03;;;13.70;94.30;;;;;;5064641;28;20032;-68
2021/04/19 11:28:23;;;;;;;3.72;2.60;;;13.70;94.70;;;;;;5068763;28;20048;-69
2021/04/19 11:30:52;;;;;;;3.10;2.33;;;13.90;93.80;;;;;;5060164;28;20024;-69
2021/04/19 11:33:24;;;;;;;2.60;2.00;;;14.10;94.60;;;;;;5055843;28;20041;-68
2021/04/19 11:36:01;;;;;;;2.35;1.80;;;14.60;94.50;;;;;;5063663;28;20046;-68
2021/04/19 11:38:28;;;;;;;2.55;2.08;;;14.80;93.20;;;;;;5064136;28;20518;-70
2021/04/19 11:40:57;;;;;;;3.17;2.20;;;14.60;94.20;;;;;;5065990;28;20020;-69
2021/04/19 11:43:25;;;;;;;2.22;2.00;;;14.40;92.60;;;;;;5065867;28;20081;-71
2021/04/19 11:46:11;;;;;;;3.33;2.80;;;14.40;92.70;;;;;;5066380;28;20063;-71
2021/04/19 11:48:40;;;;;;;2.22;1.98;;;14.40;93.00;;;;;;5065170;28;20120;-73
2021/04/19 11:51:08;;;;;;;3.20;1.98;;;14.70;93.10;;;;;;5065620;28;20057;-73
2021/04/19 11:53:37;;;;;;;2.53;1.98;;;14.70;92.40;;;;;;5065146;28;20532;-73
2021/04/19 11:56:04;;;;;;;2.53;1.92;;;14.60;92.50;;;;;;5065351;28;20020;-72
2021/04/19 11:58:31;;;;;;;2.28;1.63;;;14.90;92.50;;;;;;5065289;28;20074;-71
2021/04/19 12:00:57;;;;;;;2.45;2.10;;;15.30;92.00;;;;;;5065577;28;20124;-72
2021/04/19 12:03:22;;;;;;;5.22;2.30;;;15.20;91.10;;;;;;5065481;28;20111;-74
2021/04/19 12:05:49;;;;;;;2.42;1.80;;;15.00;91.00;;;;;;5065354;28;20028;-72
2021/04/19 12:08:15;;;;;;;3.53;1.95;;;15.40;91.30;;;;;;5064775;28;20036;-71
2021/04/19 12:10:42;;;;;;;2.78;2.08;;;15.70;90.80;;;;;;5064356;28;20090;-74
2021/04/19 12:13:14;;;;;;;2.10;1.70;;;15.60;90.20;;;;;;5063719;28;20028;-71
2021/04/19 12:15:41;;;;;;;2.53;1.88;;;15.90;90.60;;;;;;5064844;28;20047;-72
2021/04/19 12:18:07;;;;;;;1.80;1.60;;;15.90;89.80;;;;;;5065094;28;20028;-73
2021/04/19 12:20:32;;;;;;;1.58;1.45;;;15.90;90.30;;;;;;5064887;28;20028;-73
2021/04/19 12:22:58;;;;;;;1.20;1.10;;;16.40;90.40;;;;;;5065007;28;20487;-73
2021/04/19 12:25:24;;;;;;;1.05;0.95;;;16.70;89.60;;;;;;5065339;28;20103;-73
2021/04/19 12:27:50;;;;;;;1.83;1.60;;;17.00;89.80;;;;;;5065004;28;20641;-72
2021/04/19 12:30:16;;;;;;;2.88;1.70;;;16.80;87.40;;;;;;5065010;28;20039;-70
2021/04/19 12:32:41;;;;;;;2.75;2.08;;;16.70;87.70;;;;;;5064812;28;20023;-72
2021/04/19 12:35:08;;;;;;;1.20;1.10;;;16.30;86.50;;;;;;5065138;28;20119;-73
2021/04/19 12:37:33;;;;;;;1.83;1.58;;;16.20;87.40;;;;;;5065031;28;20025;-73
2021/04/19 12:39:59;;;;;;;2.10;1.17;;;16.40;87.50;;;;;;5065185;28;20017;-74
2021/04/19 12:42:24;;;;;;;1.75;1.48;;;16.40;86.20;;;;;;5065148;28;20028;-74
2021/04/19 12:44:50;;;;;;;1.65;1.35;;;16.80;86.10;;;;;;5064954;28;20074;-73
2021/04/19 12:47:16;;;;;;;1.90;1.50;;;17.10;86.70;;;;;;5064742;28;20029;-74
2021/04/19 12:49:42;;;;;;;1.63;1.20;;;17.20;84.10;;;;;;5064850;28;20098;-73
2021/04/19 12:52:09;;;;;;;1.48;1.27;;;17.20;83.30;;;;;;5065423;28;20060;-74
2021/04/19 12:54:36;;;;;;;2.45;1.55;;;17.20;83.20;;;;;;5068930;28;20032;-73
2021/04/19 12:57:01;;;;;;;1.30;1.20;;;17.10;83.00;;;;;;5068910;28;20028;-74
2021/04/19 12:59:27;;;;;;;1.27;1.17;;;17.20;83.60;;;;;;5069041;28;20024;-72
2021/04/19 13:01:54;;;;;;;1.92;1.60;;;17.40;83.40;;;;;;5069552;28;20090;-72
2021/04/19 13:04:19;;;;;;;2.40;1.65;;;17.10;82.30;;;;;;5068914;28;20021;-73
2021/04/19 13:06:46;;;;;;;2.03;1.50;;;17.00;82.70;;;;;;5068614;28;20057;-72